createdAt,value
2018-04-07T00:01:30.817Z,25.42
2018-04-07T00:03:58.630Z,24.33
2018-04-07T00:06:27.154Z,26.00
2018-04-07T00:08:54.914Z,24.40
2018-04-07T00:11:22.726Z,25.20
2018-04-07T00:13:50.490Z,25.08
2018-04-07T00:16:18.254Z,24.52
2018-04-07T00:18:46.839Z,23.15
2018-04-07T00:21:15.366Z,25.40
2018-04-07T00:23:43.144Z,21.73
2018-04-07T00:26:10.957Z,22.35
2018-04-07T00:28:39.498Z,22.67
2018-04-07T00:31:07.278Z,24.12
2018-04-07T00:33:36.007Z,22.37
2018-04-07T00:36:03.792Z,21.05
2018-04-07T00:38:31.554Z,19.80
2018-04-07T00:40:59.371Z,20.20
2018-04-07T00:43:28.566Z,18.77
2018-04-07T00:45:56.342Z,17.40
2018-04-07T00:48:24.167Z,17.12
2018-04-07T00:50:51.935Z,18.35
2018-04-07T00:53:20.564Z,16.95
2018-04-07T00:55:48.375Z,16.75
2018-04-07T00:58:16.195Z,16.35
2018-04-07T01:00:43.969Z,16.27
2018-04-07T01:03:11.806Z,17.23
2018-04-07T01:05:40.368Z,17.73
2018-04-07T01:08:09.047Z,18.33
2018-04-07T01:10:38.224Z,17.65
2018-04-07T01:13:06.011Z,17.60
2018-04-07T01:15:33.792Z,17.30
2018-04-07T01:18:01.607Z,15.68
2018-04-07T01:20:31.776Z,16.45
2018-04-07T01:23:00.770Z,18.27
2018-04-07T01:25:30.597Z,17.05
2018-04-07T01:28:02.152Z,19.25
2018-04-07T01:30:30.116Z,18.90
2018-04-07T01:32:57.962Z,18.95
2018-04-07T01:35:25.721Z,18.60
2018-04-07T01:37:53.575Z,19.48
2018-04-07T01:40:21.345Z,19.52
2018-04-07T01:42:49.112Z,18.10
2018-04-07T01:45:16.938Z,17.95
2018-04-07T01:47:45.472Z,18.33
2018-04-07T01:50:13.231Z,22.10
2018-04-07T01:52:41.057Z,21.17
2018-04-07T01:55:08.823Z,19.37
2018-04-07T01:57:36.596Z,19.98
2018-04-07T02:00:04.435Z,18.70
2018-04-07T02:02:32.962Z,18.90
2018-04-07T02:05:00.720Z,18.95
2018-04-07T02:07:28.574Z,18.67
2018-04-07T02:09:56.347Z,18.58
2018-04-07T02:12:24.161Z,19.37
2018-04-07T02:14:51.970Z,18.40
2018-04-07T02:17:19.727Z,17.12
2018-04-07T02:19:47.478Z,19.00
2018-04-07T02:22:15.290Z,18.08
2018-04-07T02:24:43.070Z,17.92
2018-04-07T02:27:11.586Z,17.85
2018-04-07T02:29:39.410Z,16.08
2018-04-07T02:32:07.931Z,17.55
2018-04-07T02:34:35.686Z,15.18
2018-04-07T02:37:03.509Z,16.23
2018-04-07T02:39:32.029Z,17.12
2018-04-07T02:42:00.560Z,16.92
2018-04-07T02:44:28.391Z,17.80
2018-04-07T02:46:56.143Z,16.73
2018-04-07T02:49:23.899Z,17.17
2018-04-07T02:51:51.709Z,20.08
2018-04-07T02:54:19.467Z,17.62
2018-04-07T02:56:47.252Z,16.00
2018-04-07T02:59:15.067Z,16.35
2018-04-07T03:01:42.840Z,15.70
2018-04-07T03:04:10.595Z,18.33
2018-04-07T03:06:38.563Z,21.12
2018-04-07T03:09:06.326Z,18.80
2018-04-07T03:11:34.094Z,18.80
2018-04-07T03:14:01.900Z,17.55
2018-04-07T03:16:29.673Z,17.40
2018-04-07T03:18:57.434Z,18.27
2018-04-07T03:21:25.251Z,17.58
2018-04-07T03:23:53.016Z,16.33
2018-04-07T03:26:20.786Z,17.55
2018-04-07T03:28:48.604Z,16.65
2018-04-07T03:31:17.388Z,16.23
2018-04-07T03:33:45.149Z,17.23
2018-04-07T03:36:12.976Z,16.27
2018-04-07T03:38:41.491Z,17.02
2018-04-07T03:41:09.245Z,15.80
2018-04-07T03:43:37.061Z,16.85
2018-04-07T03:46:04.841Z,16.70
2018-04-07T03:48:34.008Z,15.27
2018-04-07T03:51:01.842Z,17.00
2018-04-07T03:53:29.649Z,14.98
2018-04-07T03:55:58.173Z,16.33
2018-04-07T03:58:26.005Z,16.92
2018-04-07T04:00:54.557Z,14.35
2018-04-07T04:03:22.327Z,14.50
2018-04-07T04:05:50.242Z,12.05
2018-04-07T04:08:17.997Z,14.75
2018-04-07T04:10:45.750Z,13.55
2018-04-07T04:13:13.565Z,13.90
2018-04-07T04:15:41.342Z,12.00
2018-04-07T04:18:09.135Z,12.95
2018-04-07T04:20:36.969Z,13.35
2018-04-07T04:23:04.725Z,13.80
2018-04-07T04:25:32.498Z,12.13
2018-04-07T04:28:01.090Z,12.23
2018-04-07T04:30:29.615Z,11.73
2018-04-07T04:32:57.381Z,13.23
2018-04-07T04:35:25.182Z,12.10
2018-04-07T04:37:53.707Z,11.90
2018-04-07T04:40:22.236Z,14.00
2018-04-07T04:42:50.048Z,13.10
2018-04-07T04:45:17.816Z,14.82
2018-04-07T04:47:45.580Z,13.15
2018-04-07T04:50:13.406Z,12.25
2018-04-07T04:52:41.225Z,13.32
2018-04-07T04:55:08.994Z,12.60
2018-04-07T04:57:36.824Z,14.00
2018-04-07T05:00:04.608Z,12.95
2018-04-07T05:02:32.408Z,13.45
2018-04-07T05:05:00.998Z,12.02
2018-04-07T05:07:29.532Z,14.30
2018-04-07T05:09:57.303Z,13.77
2018-04-07T05:12:25.115Z,12.23
2018-04-07T05:14:52.879Z,14.90
2018-04-07T05:17:20.644Z,14.23
2018-04-07T05:19:48.478Z,13.55
2018-04-07T05:22:17.054Z,15.32
2018-04-07T05:24:45.593Z,12.18
2018-04-07T05:27:13.403Z,14.35
2018-04-07T05:29:41.979Z,14.07
2018-04-07T05:32:10.510Z,12.93
2018-04-07T05:34:38.337Z,12.98
2018-04-07T05:37:06.859Z,12.70
2018-04-07T05:39:34.637Z,13.40
2018-04-07T05:42:02.465Z,13.98
2018-04-07T05:44:30.217Z,13.15
2018-04-07T05:46:57.993Z,12.20
2018-04-07T05:49:25.816Z,13.35
2018-04-07T05:51:54.356Z,14.55
2018-04-07T05:54:22.115Z,14.10
2018-04-07T05:56:49.961Z,14.45
2018-04-07T05:59:18.491Z,14.68
2018-04-07T06:01:46.264Z,14.30
2018-04-07T06:04:14.083Z,15.15
2018-04-07T06:06:41.870Z,15.70
2018-04-07T06:09:09.627Z,14.95
2018-04-07T06:11:37.446Z,13.45
2018-04-07T06:14:05.204Z,14.70
2018-04-07T06:16:33.018Z,14.90
2018-04-07T06:19:01.630Z,14.43
2018-04-07T06:21:30.166Z,13.62
2018-04-07T06:23:57.928Z,15.15
2018-04-07T06:26:25.750Z,14.00
2018-04-07T06:28:53.561Z,13.43
2018-04-07T06:31:21.323Z,14.77
2018-04-07T06:33:49.155Z,15.43
2018-04-07T06:36:16.947Z,15.07
2018-04-07T06:38:44.719Z,13.80
2018-04-07T06:41:12.539Z,14.30
2018-04-07T06:43:40.311Z,15.85
2018-04-07T06:46:09.069Z,15.05
2018-04-07T06:48:36.927Z,15.45
2018-04-07T06:51:05.476Z,13.35
2018-04-07T06:53:33.275Z,14.57
2018-04-07T06:56:01.329Z,14.85
2018-04-07T06:58:29.844Z,13.80
2018-04-07T07:00:57.600Z,14.98
2018-04-07T07:03:25.414Z,14.45
2018-04-07T07:05:53.163Z,13.80
2018-04-07T07:08:20.931Z,14.55
2018-04-07T07:10:48.784Z,13.88
2018-04-07T07:13:16.567Z,14.02
2018-04-07T07:15:44.376Z,13.27
2018-04-07T07:18:12.201Z,15.23
2018-04-07T07:20:40.730Z,15.93
2018-04-07T07:23:08.521Z,14.07
2018-04-07T07:25:36.364Z,13.90
2018-04-07T07:28:04.165Z,15.55
2018-04-07T07:30:32.713Z,14.30
2018-04-07T07:33:00.533Z,15.57
2018-04-07T07:35:28.310Z,15.20
2018-04-07T07:37:56.067Z,12.80
2018-04-07T07:40:23.894Z,15.02
2018-04-07T07:42:51.662Z,14.18
2018-04-07T07:45:20.186Z,13.95
2018-04-07T07:47:47.995Z,14.20
2018-04-07T07:50:15.745Z,13.80
2018-04-07T07:52:43.506Z,14.68
2018-04-07T07:55:11.321Z,12.68
2018-04-07T07:57:39.094Z,12.82
2018-04-07T08:00:06.848Z,12.30
2018-04-07T08:02:34.666Z,14.05
2018-04-07T08:05:02.440Z,13.73
2018-04-07T08:07:30.983Z,13.25
2018-04-07T08:09:58.813Z,12.10
2018-04-07T08:12:26.576Z,13.45
2018-04-07T08:14:54.357Z,13.60
2018-04-07T08:17:22.226Z,12.05
2018-04-07T08:19:50.000Z,12.65
2018-04-07T08:22:17.842Z,13.18
2018-04-07T08:24:45.654Z,14.00
2018-04-07T08:27:13.406Z,13.23
2018-04-07T08:29:41.199Z,13.77
2018-04-07T08:32:09.036Z,13.88
2018-04-07T08:34:36.885Z,13.55
2018-04-07T08:37:04.645Z,12.82
2018-04-07T08:39:32.552Z,12.93
2018-04-07T08:42:00.307Z,14.15
2018-04-07T08:44:28.857Z,13.05
2018-04-07T08:46:56.669Z,13.35
2018-04-07T08:49:24.435Z,12.82
2018-04-07T08:51:52.226Z,13.18
2018-04-07T08:54:20.053Z,12.60
2018-04-07T08:56:47.887Z,13.62
2018-04-07T08:59:16.444Z,12.52
2018-04-07T09:01:44.266Z,13.35
2018-04-07T09:04:13.107Z,12.50
2018-04-07T09:06:40.895Z,13.73
2018-04-07T09:09:09.499Z,14.93
2018-04-07T09:11:37.275Z,14.30
2018-04-07T09:14:05.045Z,13.02
2018-04-07T09:16:32.874Z,12.80
2018-04-07T09:19:00.675Z,14.25
2018-04-07T09:21:28.763Z,12.23
2018-04-07T09:23:56.607Z,12.75
2018-04-07T09:26:24.409Z,14.13
2018-04-07T09:28:52.982Z,14.93
2018-04-07T09:31:25.637Z,12.77
2018-04-07T09:33:53.423Z,13.57
2018-04-07T09:36:22.047Z,13.88
2018-04-07T09:38:49.884Z,13.88
2018-04-07T09:41:18.425Z,13.77
2018-04-07T09:43:46.214Z,13.25
2018-04-07T09:46:14.828Z,13.73
2018-04-07T09:48:42.599Z,13.70
2018-04-07T09:51:10.400Z,13.95
2018-04-07T09:53:38.224Z,13.57
2018-04-07T09:56:06.000Z,13.38
2018-04-07T09:58:33.776Z,14.27
2018-04-07T10:01:02.369Z,13.55
2018-04-07T10:03:30.148Z,14.38
2018-04-07T10:05:57.934Z,13.65
2018-04-07T10:08:25.756Z,13.62
2018-04-07T10:10:53.540Z,13.07
2018-04-07T10:13:21.312Z,12.98
2018-04-07T10:15:49.924Z,12.93
2018-04-07T10:18:26.608Z,13.52
2018-04-07T10:20:54.462Z,13.93
2018-04-07T10:23:22.255Z,11.70
2018-04-07T10:25:50.803Z,13.85
2018-04-07T10:28:18.650Z,10.82
2018-04-07T10:30:47.271Z,11.80
2018-04-07T10:33:15.825Z,10.95
2018-04-07T10:35:44.251Z,11.80
2018-04-07T10:38:12.289Z,13.23
2018-04-07T10:40:40.064Z,12.27
2018-04-07T10:43:07.951Z,11.82
2018-04-07T10:45:36.559Z,11.23
2018-04-07T10:48:05.096Z,10.85
2018-04-07T10:50:32.935Z,10.07
2018-04-07T10:53:00.724Z,10.30
2018-04-07T10:55:28.501Z,11.50
2018-04-07T10:57:56.347Z,11.05
2018-04-07T11:00:24.597Z,10.10
2018-04-07T11:02:52.628Z,10.68
2018-04-07T11:05:21.238Z,10.57
2018-04-07T11:07:49.047Z,10.20
2018-04-07T11:10:17.612Z,9.35
2018-04-07T11:12:45.462Z,11.23
2018-04-07T11:15:14.012Z,10.35
2018-04-07T11:17:41.807Z,10.63
2018-04-07T11:20:09.692Z,10.77
2018-04-07T11:22:37.554Z,11.32
2018-04-07T11:25:05.348Z,9.52
2018-04-07T11:27:33.969Z,9.65
2018-04-07T11:30:01.758Z,9.48
2018-04-07T11:32:29.545Z,9.93
2018-04-07T11:34:58.157Z,8.43
2018-04-07T11:37:25.940Z,9.93
2018-04-07T11:39:53.736Z,10.88
2018-04-07T11:42:21.584Z,9.80
2018-04-07T11:44:49.381Z,11.80
2018-04-07T11:47:17.162Z,10.27
2018-04-07T11:49:45.019Z,11.00
2018-04-07T11:52:12.809Z,9.90
2018-04-07T11:54:40.598Z,10.23
2018-04-07T11:57:08.423Z,9.25
2018-04-07T11:59:36.212Z,9.77
2018-04-07T12:02:03.991Z,9.13
2018-04-07T12:04:31.820Z,8.43
2018-04-07T12:06:59.628Z,10.30
2018-04-07T12:09:27.425Z,8.27
2018-04-07T12:11:55.287Z,10.68
2018-04-07T12:14:23.108Z,9.95
2018-04-07T12:16:55.020Z,10.25
2018-04-07T12:19:22.972Z,11.38
2018-04-07T12:21:50.778Z,8.73
2018-04-07T12:24:18.560Z,10.45
2018-04-07T12:26:46.467Z,8.73
2018-04-07T12:29:14.268Z,9.38
2018-04-07T12:31:42.057Z,9.07
2018-04-07T12:34:09.912Z,8.95
2018-04-07T12:36:37.684Z,9.77
2018-04-07T12:39:06.227Z,9.00
2018-04-07T12:41:34.081Z,9.30
2018-04-07T12:44:01.899Z,9.85
2018-04-07T12:46:30.487Z,11.18
2018-04-07T12:48:59.158Z,10.00
2018-04-07T12:51:26.943Z,9.52
2018-04-07T12:53:55.506Z,10.23
2018-04-07T12:56:27.663Z,9.15
2018-04-07T12:58:55.830Z,10.13
2018-04-07T13:01:23.605Z,8.93
2018-04-07T13:03:51.511Z,9.10
2018-04-07T13:06:19.283Z,8.32
2018-04-07T13:08:47.090Z,9.18
2018-04-07T13:11:14.921Z,9.00
2018-04-07T13:13:42.692Z,8.43
2018-04-07T13:16:10.472Z,8.13
2018-04-07T13:18:38.313Z,9.40
2018-04-07T13:21:06.095Z,8.95
2018-04-07T13:23:33.879Z,8.85
2018-04-07T13:26:02.471Z,7.43
2018-04-07T13:28:31.046Z,9.95
2018-04-07T13:30:58.838Z,8.15
2018-04-07T13:33:38.368Z,8.38
2018-04-07T13:35:55.314Z,9.15
2018-04-07T13:38:23.094Z,8.77
2018-04-07T13:40:50.933Z,8.20
2018-04-07T13:43:18.710Z,8.60
2018-04-07T13:45:46.492Z,8.93
2018-04-07T13:48:15.106Z,8.07
2018-04-07T13:50:42.878Z,9.00
2018-04-07T13:53:10.663Z,8.50
2018-04-07T13:55:38.510Z,9.15
2018-04-07T13:58:06.295Z,8.55
2018-04-07T14:00:34.087Z,9.15
2018-04-07T14:03:02.691Z,9.38
2018-04-07T14:05:30.461Z,8.82
2018-04-07T14:07:58.373Z,8.20
2018-04-07T14:10:26.248Z,8.52
2018-04-07T14:12:54.160Z,10.57
2018-04-07T14:15:21.946Z,8.23
2018-04-07T14:17:49.775Z,8.65
2018-04-07T14:20:17.563Z,8.85
2018-04-07T14:22:45.348Z,8.02
2018-04-07T14:25:13.272Z,8.65
2018-04-07T14:27:41.039Z,8.55
2018-04-07T14:30:08.806Z,9.88
2018-04-07T14:32:36.652Z,8.00
2018-04-07T14:35:04.438Z,9.07
2018-04-07T14:37:32.230Z,7.80
2018-04-07T14:40:00.111Z,8.05
2018-04-07T14:42:27.905Z,8.18
2018-04-07T14:44:55.673Z,9.00
2018-04-07T14:47:23.516Z,8.55
2018-04-07T14:49:52.052Z,8.15
2018-04-07T14:52:19.838Z,7.53
2018-04-07T14:54:47.694Z,8.18
2018-04-07T14:57:15.477Z,9.50
2018-04-07T14:59:44.036Z,9.77
2018-04-07T15:02:11.886Z,9.05
2018-04-07T15:04:39.706Z,7.95
2018-04-07T15:07:07.480Z,8.32
2018-04-07T15:09:35.351Z,6.70
2018-04-07T15:12:03.120Z,7.43
2018-04-07T15:14:30.929Z,8.25
2018-04-07T15:16:59.703Z,9.55
2018-04-07T15:19:27.496Z,8.10
2018-04-07T15:21:56.033Z,8.10
2018-04-07T15:24:23.878Z,7.70
2018-04-07T15:26:51.658Z,7.97
2018-04-07T15:29:19.456Z,7.95
2018-04-07T15:31:48.128Z,9.07
2018-04-07T15:34:16.708Z,8.90
2018-04-07T15:36:45.266Z,7.78
2018-04-07T15:39:13.094Z,8.85
2018-04-07T15:41:40.905Z,8.77
2018-04-07T15:44:08.691Z,7.70
2018-04-07T15:46:37.298Z,8.35
2018-04-07T15:49:05.127Z,8.10
2018-04-07T15:51:33.659Z,8.60
2018-04-07T15:54:01.516Z,8.20
2018-04-07T15:56:29.300Z,8.75
2018-04-07T15:58:57.084Z,7.55
2018-04-07T16:01:24.941Z,8.70
2018-04-07T16:03:52.707Z,8.75
2018-04-07T16:06:20.499Z,8.52
2018-04-07T16:08:49.123Z,9.00
2018-04-07T16:11:16.930Z,7.87
2018-04-07T16:13:45.491Z,9.30
2018-04-07T16:16:13.613Z,8.35
2018-04-07T16:18:41.393Z,8.07
2018-04-07T16:21:09.178Z,9.65
2018-04-07T16:23:37.033Z,8.80
2018-04-07T16:26:04.812Z,9.43
2018-04-07T16:28:32.589Z,9.10
2018-04-07T16:31:00.448Z,8.95
2018-04-07T16:33:28.271Z,10.15
2018-04-07T16:35:56.058Z,9.63
2018-04-07T16:38:23.908Z,10.20
2018-04-07T16:40:51.685Z,9.25
2018-04-07T16:43:20.228Z,11.02
2018-04-07T16:45:48.071Z,10.35
2018-04-07T16:48:18.143Z,10.25
2018-04-07T16:50:46.755Z,10.48
2018-04-07T16:53:14.699Z,11.23
2018-04-07T16:55:42.861Z,10.55
2018-04-07T16:58:10.662Z,10.77
2018-04-07T17:00:38.585Z,9.18
2018-04-07T17:03:07.468Z,9.85
2018-04-07T17:05:36.556Z,11.82
2018-04-07T17:08:04.406Z,11.00
2018-04-07T17:10:32.206Z,10.85
2018-04-07T17:13:00.015Z,9.52
2018-04-07T17:15:27.866Z,10.95
2018-04-07T17:17:55.835Z,9.75
2018-04-07T17:20:23.624Z,11.18
2018-04-07T17:22:51.464Z,9.65
2018-04-07T17:25:19.242Z,10.18
2018-04-07T17:27:47.558Z,9.80
2018-04-07T17:30:15.401Z,11.05
2018-04-07T17:32:43.219Z,11.93
2018-04-07T17:35:11.762Z,11.30
2018-04-07T17:37:39.617Z,11.10
2018-04-07T17:40:07.398Z,11.77
2018-04-07T17:42:35.180Z,11.57
2018-04-07T17:45:03.815Z,12.32
2018-04-07T17:47:31.603Z,11.90
2018-04-07T17:49:59.410Z,13.65
2018-04-07T17:52:27.330Z,14.43
2018-04-07T17:54:55.143Z,14.80
2018-04-07T17:57:22.913Z,16.10
2018-04-07T17:59:50.800Z,16.02
2018-04-07T18:02:19.493Z,17.12
2018-04-07T18:04:47.352Z,15.70
2018-04-07T18:07:15.268Z,13.93
2018-04-07T18:09:43.226Z,15.90
2018-04-07T18:12:12.012Z,17.95
2018-04-07T18:14:40.608Z,16.08
2018-04-07T18:17:08.539Z,16.35
2018-04-07T18:19:37.107Z,16.30
2018-04-07T18:22:05.274Z,17.10
2018-04-07T18:24:33.088Z,16.73
2018-04-07T18:27:01.905Z,16.75
2018-04-07T18:29:29.760Z,17.37
2018-04-07T18:31:57.556Z,17.48
2018-04-07T18:34:25.383Z,15.50
2018-04-07T18:36:53.250Z,17.05
2018-04-07T18:39:21.040Z,17.35
2018-04-07T18:41:51.691Z,18.20
2018-04-07T18:44:21.291Z,19.17
2018-04-07T18:46:49.176Z,19.42
2018-04-07T18:49:17.129Z,19.00
2018-04-07T18:51:46.174Z,20.45
2018-04-07T18:54:14.091Z,19.73
2018-04-07T18:56:42.718Z,19.05
2018-04-07T18:59:10.647Z,18.98
2018-04-07T19:01:38.526Z,20.62
2018-04-07T19:04:06.426Z,20.10
2018-04-07T19:06:35.260Z,19.40
2018-04-07T19:09:03.209Z,18.62
2018-04-07T19:11:31.817Z,19.00
2018-04-07T19:13:59.844Z,20.60
2018-04-07T19:16:28.520Z,19.85
2018-04-07T19:18:56.373Z,19.62
2018-04-07T19:21:24.717Z,20.92
2018-04-07T19:23:52.579Z,17.20
2018-04-07T19:26:20.459Z,19.62
2018-04-07T19:28:48.531Z,18.42
2018-04-07T19:31:16.508Z,19.25
2018-04-07T19:33:44.382Z,20.35
2018-04-07T19:36:12.355Z,19.50
2018-04-07T19:38:40.569Z,19.70
2018-04-07T19:41:08.498Z,22.62
2018-04-07T19:43:37.234Z,19.20
2018-04-07T19:46:05.127Z,20.42
2018-04-07T19:48:33.121Z,21.45
2018-04-07T19:51:01.099Z,20.42
2018-04-07T19:53:29.974Z,21.80
2018-04-07T19:55:58.629Z,21.20
2018-04-07T19:58:26.557Z,21.77
2018-04-07T20:00:54.443Z,20.92
2018-04-07T20:03:22.354Z,21.45
2018-04-07T20:05:51.275Z,23.62
2018-04-07T20:08:19.205Z,21.65
2018-04-07T20:10:47.475Z,23.52
2018-04-07T20:13:16.244Z,22.42
2018-04-07T20:15:44.918Z,22.37
2018-04-07T20:18:13.376Z,22.92
2018-04-07T20:20:42.275Z,21.73
2018-04-07T20:23:11.411Z,22.95
2018-04-07T20:25:40.047Z,21.30
2018-04-07T20:28:07.980Z,20.35
2018-04-07T20:30:35.890Z,21.00
2018-04-07T20:33:04.337Z,23.23
2018-04-07T20:35:32.637Z,23.20
2018-04-07T20:38:00.505Z,23.45
2018-04-07T20:40:28.377Z,23.75
2018-04-07T20:42:57.046Z,24.23
2018-04-07T20:45:24.914Z,24.90
2018-04-07T20:47:52.753Z,25.75
2018-04-07T20:50:20.642Z,26.77
2018-04-07T20:52:48.472Z,24.60
2018-04-07T20:55:16.366Z,25.70
2018-04-07T20:57:44.295Z,24.70
2018-04-07T21:00:12.913Z,24.20
2018-04-07T21:02:40.790Z,26.05
2018-04-07T21:05:08.721Z,29.02
2018-04-07T21:07:36.540Z,25.10
2018-04-07T21:10:04.426Z,27.80
2018-04-07T21:12:33.194Z,26.10
2018-04-07T21:15:01.838Z,27.83
2018-04-07T21:17:29.685Z,27.70
2018-04-07T21:19:57.601Z,26.85
2018-04-07T21:22:25.435Z,26.42
2018-04-07T21:24:53.483Z,25.30
2018-04-07T21:27:21.336Z,25.50
2018-04-07T21:29:49.420Z,28.08
2018-04-07T21:32:17.244Z,26.30
2018-04-07T21:34:45.105Z,26.98
2018-04-07T21:37:12.897Z,26.25
2018-04-07T21:39:41.129Z,26.10
2018-04-07T21:42:08.970Z,27.08
2018-04-07T21:44:36.787Z,27.52
2018-04-07T21:47:05.333Z,26.08
2018-04-07T21:49:33.206Z,26.75
2018-04-07T21:52:01.095Z,27.90
2018-04-07T21:54:29.637Z,26.35
2018-04-07T21:56:57.512Z,28.75
2018-04-07T21:59:25.291Z,28.23
2018-04-07T22:01:53.878Z,26.10
2018-04-07T22:04:22.471Z,26.27
2018-04-07T22:06:51.030Z,28.00
2018-04-07T22:09:19.592Z,27.67
2018-04-07T22:11:47.443Z,28.90
2018-04-07T22:14:16.008Z,26.00
2018-04-07T22:16:43.815Z,27.95
2018-04-07T22:19:11.708Z,27.35
2018-04-07T22:21:40.310Z,30.52
2018-04-07T22:24:13.854Z,28.80
2018-04-07T22:26:41.646Z,28.05
2018-04-07T22:29:10.192Z,27.77
2018-04-07T22:31:38.061Z,28.98
2018-04-07T22:34:05.902Z,28.12
2018-04-07T22:36:33.706Z,29.35
2018-04-07T22:39:02.323Z,29.75
2018-04-07T22:41:30.108Z,27.40
2018-04-07T22:43:57.907Z,29.83
2018-04-07T22:46:26.523Z,28.62
2018-04-07T22:48:54.309Z,27.83
2018-04-07T22:51:22.097Z,29.37
2018-04-07T22:53:50.018Z,28.92
2018-04-07T22:56:17.800Z,28.90
2018-04-07T22:58:45.604Z,27.67
2018-04-07T23:01:14.205Z,29.75
2018-04-07T23:03:42.146Z,29.90
2018-04-07T23:06:09.977Z,28.73
2018-04-07T23:08:37.831Z,30.40
2018-04-07T23:11:05.618Z,29.98
2018-04-07T23:13:33.397Z,29.12
2018-04-07T23:16:02.025Z,27.10
2018-04-07T23:18:29.828Z,27.75
2018-04-07T23:20:57.601Z,27.33
2018-04-07T23:23:25.457Z,27.73
2018-04-07T23:25:53.233Z,27.52
2018-04-07T23:28:21.783Z,28.33
2018-04-07T23:30:49.625Z,28.92
2018-04-07T23:33:17.436Z,30.73
2018-04-07T23:35:45.247Z,28.25
2018-04-07T23:38:13.081Z,27.33
2018-04-07T23:40:41.626Z,27.17
2018-04-07T23:43:09.407Z,28.08
2018-04-07T23:45:38.024Z,27.90
2018-04-07T23:48:05.820Z,27.02
2018-04-07T23:50:33.593Z,29.55
2018-04-07T23:53:01.412Z,25.75
2018-04-07T23:55:29.186Z,27.70
2018-04-07T23:57:56.959Z,26.98
